createdAt,value
2022-10-29T00:02:40.377Z,98880.22
2022-10-29T00:05:43.315Z,98880.85
2022-10-29T00:08:46.254Z,98880.53
2022-10-29T00:11:49.097Z,98875.02
2022-10-29T00:14:51.924Z,98879.67
2022-10-29T00:17:55.150Z,98876.12
2022-10-29T00:21:03.273Z,98878.73
2022-10-29T00:24:06.655Z,98878.49
2022-10-29T00:27:09.603Z,98876.91
2022-10-29T00:30:13.149Z,98868.71
2022-10-29T00:36:29.142Z,98873.13
2022-10-29T00:39:33.563Z,98872.16
2022-10-29T00:42:36.522Z,98874.92
2022-10-29T00:45:45.359Z,98874.69
2022-10-29T00:48:51.700Z,98880.29
2022-10-29T00:51:55.177Z,98877.77
2022-10-29T00:55:02.794Z,98868.70
2022-10-29T00:58:05.722Z,98867.52
2022-10-29T01:01:08.786Z,98864.76
2022-10-29T01:04:12.066Z,98861.76
2022-10-29T01:07:15.093Z,98857.11
2022-10-29T01:10:23.587Z,98855.38
2022-10-29T01:13:50.935Z,98854.98
2022-10-29T01:16:59.662Z,98853.88
2022-10-29T01:20:11.702Z,98844.17
2022-10-29T01:23:39.111Z,98828.17
2022-10-29T01:27:23.758Z,98829.52
2022-10-29T01:30:47.870Z,98834.24
2022-10-29T01:34:11.792Z,98843.85
2022-10-29T01:37:31.562Z,98846.93
2022-10-29T01:40:45.553Z,98839.30
2022-10-29T01:43:55.848Z,98840.79
2022-10-29T01:47:02.706Z,98837.80
2022-10-29T01:50:09.893Z,98832.66
2022-10-29T01:53:13.427Z,98830.94
2022-10-29T01:56:16.494Z,98829.52
2022-10-29T01:59:35.221Z,98834.39
2022-10-29T02:02:58.216Z,98833.23
2022-10-29T02:06:09.848Z,98828.09
2022-10-29T02:09:27.795Z,98828.17
2022-10-29T02:12:40.262Z,98827.14
2022-10-29T02:15:48.379Z,98820.13
2022-10-29T02:18:51.611Z,98821.55
2022-10-29T02:21:54.532Z,98829.04
2022-10-29T02:24:57.406Z,98828.41
2022-10-29T02:28:00.372Z,98811.46
2022-10-29T02:31:03.560Z,98807.21
2022-10-29T02:34:06.440Z,98804.85
2022-10-29T02:37:09.344Z,98806.18
2022-10-29T02:40:12.802Z,98804.53
2022-10-29T02:43:15.721Z,98804.46
2022-10-29T02:46:21.114Z,98804.38
2022-10-29T02:49:24.072Z,98809.27
2022-10-29T02:52:26.941Z,98817.98
2022-10-29T02:55:29.845Z,98822.66
2022-10-29T02:58:33.010Z,98824.08
2022-10-29T03:01:35.933Z,98825.90
2022-10-29T03:04:39.550Z,98825.73
2022-10-29T03:07:42.412Z,98830.77
2022-10-29T03:10:45.370Z,98829.76
2022-10-29T03:13:48.389Z,98821.23
2022-10-29T03:16:51.303Z,98819.90
2022-10-29T03:19:54.337Z,98823.38
2022-10-29T03:22:57.223Z,98832.04
2022-10-29T03:26:00.106Z,98829.98
2022-10-29T03:29:03.139Z,98829.51
2022-10-29T03:32:06.100Z,98829.73
2022-10-29T03:35:10.700Z,98822.02
2022-10-29T03:38:13.596Z,98816.67
2022-10-29T03:41:16.442Z,98826.29
2022-10-29T03:44:19.281Z,98829.58
2022-10-29T03:47:22.189Z,98829.35
2022-10-29T03:50:25.040Z,98826.67
2022-10-29T03:53:29.126Z,98828.89
2022-10-29T03:56:32.017Z,98826.04
2022-10-29T03:59:34.947Z,98818.71
2022-10-29T04:02:37.907Z,98816.59
2022-10-29T04:05:40.857Z,98816.59
2022-10-29T04:08:43.920Z,98828.41
2022-10-29T04:11:46.816Z,98823.36
2022-10-29T04:17:57.579Z,98823.13
2022-10-29T04:31:12.350Z,98807.20
2022-10-29T04:34:15.300Z,98804.45
2022-10-29T04:37:18.178Z,98812.27
2022-10-29T04:40:23.520Z,98804.84
2022-10-29T04:43:27.441Z,98799.33
2022-10-29T04:46:30.321Z,98798.00
2022-10-29T04:49:33.291Z,98806.73
2022-10-29T04:52:36.184Z,98803.67
2022-10-29T04:55:39.580Z,98802.80
2022-10-29T04:58:42.444Z,98810.04
2022-10-29T05:01:45.357Z,98810.45
2022-10-29T05:04:48.207Z,98813.84
2022-10-29T05:08:00.106Z,98812.65
2022-10-29T05:11:06.997Z,98803.73
2022-10-29T05:14:09.897Z,98807.06
2022-10-29T05:17:12.809Z,98808.16
2022-10-29T05:20:15.688Z,98806.98
2022-10-29T05:23:18.584Z,98811.08
2022-10-29T05:26:21.499Z,98810.45
2022-10-29T05:29:24.381Z,98811.31
2022-10-29T05:32:30.524Z,98809.34
2022-10-29T05:35:34.010Z,98805.55
2022-10-29T05:38:36.887Z,98811.94
2022-10-29T05:41:39.792Z,98811.79
2022-10-29T05:44:42.646Z,98809.96
2022-10-29T05:47:45.535Z,98815.80
2022-10-29T05:50:48.456Z,98820.22
2022-10-29T05:53:51.518Z,98818.72
2022-10-29T05:56:54.434Z,98822.02
2022-10-29T05:59:57.317Z,98821.70
2022-10-29T06:03:00.919Z,98827.56
2022-10-29T06:06:04.284Z,98833.23
2022-10-29T06:09:07.346Z,98830.55
2022-10-29T06:12:10.298Z,98838.27
2022-10-29T06:15:13.237Z,98844.11
2022-10-29T06:18:16.582Z,98851.59
2022-10-29T06:21:20.230Z,98859.48
2022-10-29T06:24:23.261Z,98864.52
2022-10-29T06:27:26.602Z,98863.98
2022-10-29T06:30:30.899Z,98861.38
2022-10-29T06:33:36.357Z,98856.72
2022-10-29T06:36:39.304Z,98854.52
2022-10-29T06:39:42.170Z,98856.81
2022-10-29T06:42:45.120Z,98865.32
2022-10-29T06:45:49.793Z,98867.21
2022-10-29T06:48:52.671Z,98872.11
2022-10-29T06:51:55.540Z,98873.37
2022-10-29T06:54:58.380Z,98876.60
2022-10-29T06:58:03.935Z,98876.91
2022-10-29T07:01:06.912Z,98886.62
2022-10-29T07:04:09.827Z,98892.30
2022-10-29T07:07:12.828Z,98903.41
2022-10-29T07:10:15.878Z,98903.27
2022-10-29T07:13:18.771Z,98903.11
2022-10-29T07:16:21.682Z,98907.59
2022-10-29T07:19:24.571Z,98906.50
2022-10-29T07:22:32.447Z,98908.00
2022-10-29T07:25:39.001Z,98909.88
2022-10-29T07:28:42.524Z,98911.48
2022-10-29T07:31:45.676Z,98915.73
2022-10-29T07:34:48.536Z,98916.43
2022-10-29T07:37:51.437Z,98920.23
2022-10-29T07:40:54.586Z,98920.13
2022-10-29T07:43:57.443Z,98918.80
2022-10-29T07:47:02.178Z,98915.02
2022-10-29T07:50:05.389Z,98915.39
2022-10-29T07:53:08.540Z,98919.27
2022-10-29T07:56:11.693Z,98918.23
2022-10-29T07:59:15.899Z,98922.33
2022-10-29T08:02:18.779Z,98918.79
2022-10-29T08:05:22.472Z,98918.39
2022-10-29T08:08:25.703Z,98919.88
2022-10-29T08:11:28.611Z,98918.14
2022-10-29T08:14:31.462Z,98919.64
2022-10-29T08:17:34.312Z,98923.42
2022-10-29T08:20:37.187Z,98924.83
2022-10-29T08:23:39.965Z,98930.10
2022-10-29T08:26:42.847Z,98934.45
2022-10-29T08:29:45.641Z,98932.31
2022-10-29T08:32:48.599Z,98928.02
2022-10-29T08:35:52.735Z,98917.08
2022-10-29T08:38:55.584Z,98917.37
2022-10-29T08:42:17.071Z,98919.93
2022-10-29T08:45:30.298Z,98915.08
2022-10-29T08:48:36.921Z,98913.28
2022-10-29T08:51:44.406Z,98912.14
2022-10-29T08:55:10.155Z,98912.49
2022-10-29T08:58:27.868Z,98916.71
2022-10-29T09:01:31.160Z,98910.50
2022-10-29T09:04:36.620Z,98914.48
2022-10-29T09:07:57.127Z,98908.61
2022-10-29T09:11:33.808Z,98912.21
2022-10-29T09:14:45.165Z,98919.41
2022-10-29T09:18:02.072Z,98919.39
2022-10-29T09:21:18.579Z,98916.59
2022-10-29T09:24:38.769Z,98916.64
2022-10-29T09:28:02.980Z,98920.80
2022-10-29T09:31:34.683Z,98923.06
2022-10-29T09:34:50.903Z,98921.30
2022-10-29T09:37:59.115Z,98922.87
2022-10-29T09:41:03.978Z,98927.81
2022-10-29T09:44:25.134Z,98922.16
2022-10-29T09:47:51.713Z,98917.52
2022-10-29T09:51:06.067Z,98917.45
2022-10-29T09:54:09.404Z,98915.54
2022-10-29T09:57:20.464Z,98911.89
2022-10-29T10:00:26.457Z,98906.66
2022-10-29T10:03:35.369Z,98902.93
2022-10-29T10:07:11.623Z,98896.42
2022-10-29T10:10:22.769Z,98899.11
2022-10-29T10:13:29.638Z,98901.77
2022-10-29T10:16:33.476Z,98894.61
2022-10-29T10:19:44.479Z,98891.30
2022-10-29T10:22:47.575Z,98887.59
2022-10-29T10:25:53.378Z,98886.30
2022-10-29T10:29:17.520Z,98884.58
2022-10-29T10:32:25.707Z,98885.06
2022-10-29T10:35:32.201Z,98889.73
2022-10-29T10:38:42.050Z,98887.60
2022-10-29T10:41:45.810Z,98884.77
2022-10-29T10:45:15.104Z,98885.79
2022-10-29T10:48:18.199Z,98883.98
2022-10-29T10:51:28.933Z,98879.33
2022-10-29T10:54:55.286Z,98870.75
2022-10-29T10:58:03.863Z,98868.81
2022-10-29T11:01:22.538Z,98865.91
2022-10-29T11:04:31.203Z,98863.17
2022-10-29T11:07:36.860Z,98859.39
2022-10-29T11:10:46.186Z,98858.39
2022-10-29T11:13:50.551Z,98861.71
2022-10-29T11:16:59.220Z,98856.84
2022-10-29T11:20:08.532Z,98855.32
2022-10-29T11:23:17.043Z,98857.72
2022-10-29T11:26:29.654Z,98867.50
2022-10-29T11:29:48.963Z,98867.59
2022-10-29T11:36:30.133Z,98859.34
2022-10-29T11:39:49.011Z,98856.97
2022-10-29T11:42:51.924Z,98848.61
2022-10-29T11:46:04.045Z,98849.33
2022-10-29T11:50:01.452Z,98846.23
2022-10-29T11:53:15.172Z,98842.52
2022-10-29T11:56:41.133Z,98845.06
2022-10-29T11:59:58.462Z,98846.36
2022-10-29T12:03:14.424Z,98842.48
2022-10-29T12:06:26.471Z,98842.27
2022-10-29T12:09:47.851Z,98840.78
2022-10-29T12:13:04.635Z,98838.27
2022-10-29T12:17:02.960Z,98836.08
2022-10-29T12:20:29.502Z,98828.66
2022-10-29T12:23:50.465Z,98828.77
2022-10-29T12:27:09.277Z,98827.58
2022-10-29T12:30:16.885Z,98831.35
2022-10-29T12:33:28.755Z,98821.73
2022-10-29T12:36:48.969Z,98825.36
2022-10-29T12:40:00.187Z,98830.01
2022-10-29T12:43:07.391Z,98829.34
2022-10-29T12:47:03.119Z,98825.08
2022-10-29T12:50:34.209Z,98826.54
2022-10-29T12:54:09.079Z,98820.77
2022-10-29T12:57:14.726Z,98818.28
2022-10-29T13:00:23.545Z,98816.02
2022-10-29T13:04:02.713Z,98818.89
2022-10-29T13:07:23.363Z,98815.95
2022-10-29T13:10:36.299Z,98813.12
2022-10-29T13:13:50.413Z,98813.59
2022-10-29T13:16:54.822Z,98803.66
2022-10-29T13:20:00.885Z,98797.95
2022-10-29T13:23:23.955Z,98794.20
2022-10-29T13:27:00.039Z,98796.72
2022-10-29T13:30:18.199Z,98793.39
2022-10-29T13:33:23.968Z,98790.98
2022-10-29T13:36:29.348Z,98790.74
2022-10-29T13:39:32.200Z,98792.64
2022-10-29T13:42:35.163Z,98787.41
2022-10-29T13:45:41.598Z,98784.83
2022-10-29T13:48:46.206Z,98784.20
2022-10-29T13:51:57.305Z,98786.47
2022-10-29T13:55:05.417Z,98784.67
2022-10-29T13:58:13.063Z,98784.70
2022-10-29T14:01:19.151Z,98782.77
2022-10-29T14:04:31.572Z,98772.42
2022-10-29T14:07:46.267Z,98773.42
2022-10-29T14:10:53.655Z,98768.65
2022-10-29T14:14:00.658Z,98770.42
2022-10-29T14:17:18.888Z,98774.59
2022-10-29T14:20:28.921Z,98773.05
2022-10-29T14:23:33.130Z,98776.04
2022-10-29T14:26:41.831Z,98778.83
2022-10-29T14:29:44.846Z,98775.69
2022-10-29T14:32:47.797Z,98779.23
2022-10-29T14:35:53.115Z,98788.13
2022-10-29T14:39:04.731Z,98788.08
2022-10-29T14:45:28.812Z,98787.61
2022-10-29T14:48:31.925Z,98787.58
2022-10-29T14:51:40.830Z,98790.86
2022-10-29T14:54:48.713Z,98787.91
2022-10-29T14:58:06.850Z,98773.95
2022-10-29T15:01:15.709Z,98779.87
2022-10-29T15:04:21.754Z,98789.87
2022-10-29T15:07:29.509Z,98793.32
2022-10-29T15:10:32.908Z,98790.20
2022-10-29T15:13:37.325Z,98783.35
2022-10-29T15:16:42.411Z,98782.52
2022-10-29T15:19:46.679Z,98773.14
2022-10-29T15:22:54.926Z,98778.56
2022-10-29T15:26:02.341Z,98781.92
2022-10-29T15:29:10.703Z,98786.98
2022-10-29T15:32:16.449Z,98784.23
2022-10-29T15:35:21.344Z,98780.31
2022-10-29T15:38:30.074Z,98783.11
2022-10-29T15:41:47.354Z,98784.58
2022-10-29T15:45:08.466Z,98775.77
2022-10-29T15:48:12.242Z,98769.14
2022-10-29T15:51:15.717Z,98768.31
2022-10-29T15:54:18.681Z,98760.44
2022-10-29T15:57:21.825Z,98760.79
2022-10-29T16:00:24.880Z,98761.46
2022-10-29T16:03:28.206Z,98768.14
2022-10-29T16:06:31.845Z,98771.10
2022-10-29T16:09:34.829Z,98770.27
2022-10-29T16:12:37.646Z,98774.26
2022-10-29T16:15:43.311Z,98771.60
2022-10-29T16:18:49.762Z,98777.17
2022-10-29T16:21:56.685Z,98774.66
2022-10-29T16:25:01.131Z,98775.58
2022-10-29T16:28:04.368Z,98776.61
2022-10-29T16:31:24.706Z,98778.95
2022-10-29T16:34:27.574Z,98783.81
2022-10-29T16:37:30.401Z,98789.20
2022-10-29T16:40:33.280Z,98791.20
2022-10-29T16:43:36.153Z,98794.48
2022-10-29T16:46:39.034Z,98800.27
2022-10-29T16:49:41.902Z,98800.90
2022-10-29T16:52:44.980Z,98804.17
2022-10-29T16:55:47.908Z,98803.70
2022-10-29T16:58:50.779Z,98806.27
2022-10-29T17:01:53.700Z,98797.59
2022-10-29T17:04:56.640Z,98787.89
2022-10-29T17:07:59.517Z,98782.92
2022-10-29T17:11:05.902Z,98785.95
2022-10-29T17:14:09.220Z,98786.77
2022-10-29T17:17:12.092Z,98781.55
2022-10-29T17:20:15.309Z,98773.90
2022-10-29T17:23:18.199Z,98774.30
2022-10-29T17:26:21.151Z,98774.80
2022-10-29T17:29:24.116Z,98772.91
2022-10-29T17:32:32.710Z,98773.39
2022-10-29T17:35:35.614Z,98780.38
2022-10-29T17:38:38.550Z,98785.92
2022-10-29T17:41:41.518Z,98784.52
2022-10-29T17:44:44.585Z,98782.78
2022-10-29T17:47:47.419Z,98781.98
2022-10-29T17:50:57.377Z,98782.63
2022-10-29T17:54:01.985Z,98784.15
2022-10-29T17:57:05.900Z,98790.65
2022-10-29T18:00:09.373Z,98804.48
2022-10-29T18:03:12.357Z,98815.17
2022-10-29T18:06:15.791Z,98804.20
2022-10-29T18:09:21.128Z,98802.48
2022-10-29T18:12:24.294Z,98801.70
2022-10-29T18:15:27.830Z,98804.02
2022-10-29T18:18:47.974Z,98801.80
2022-10-29T18:21:57.873Z,98802.36
2022-10-29T18:25:00.970Z,98793.98
2022-10-29T18:28:03.926Z,98796.68
2022-10-29T18:31:06.883Z,98795.11
2022-10-29T18:34:09.675Z,98792.34
2022-10-29T18:37:12.586Z,98792.66
2022-10-29T18:40:15.475Z,98791.41
2022-10-29T18:43:18.385Z,98789.14
2022-10-29T18:46:21.889Z,98784.55
2022-10-29T18:49:25.520Z,98779.66
2022-10-29T18:52:28.634Z,98777.06
2022-10-29T18:55:31.596Z,98774.31
2022-10-29T18:58:34.426Z,98769.81
2022-10-29T19:01:37.845Z,98765.02
2022-10-29T19:04:40.813Z,98764.45
2022-10-29T19:07:44.176Z,98765.59
2022-10-29T19:10:47.099Z,98763.63
2022-10-29T19:13:53.448Z,98763.69
2022-10-29T19:16:56.867Z,98764.66
2022-10-29T19:20:00.627Z,98771.13
2022-10-29T19:23:04.442Z,98772.47
2022-10-29T19:26:10.632Z,98775.79
2022-10-29T19:29:15.137Z,98775.95
2022-10-29T19:32:18.496Z,98774.69
2022-10-29T19:35:21.711Z,98774.67
2022-10-29T19:38:25.549Z,98770.98
2022-10-29T19:41:29.573Z,98770.73
2022-10-29T19:44:32.806Z,98774.05
2022-10-29T19:47:45.480Z,98772.08
2022-10-29T19:50:56.496Z,98773.18
2022-10-29T19:54:05.294Z,98769.70
2022-10-29T19:57:09.244Z,98778.73
2022-10-29T20:00:16.722Z,98778.24
2022-10-29T20:03:21.856Z,98783.38
2022-10-29T20:06:28.727Z,98786.30
2022-10-29T20:09:33.890Z,98789.14
2022-10-29T20:12:36.760Z,98785.44
2022-10-29T20:15:40.220Z,98781.96
2022-10-29T20:18:46.673Z,98785.52
2022-10-29T20:21:49.582Z,98791.83
2022-10-29T20:24:52.472Z,98785.67
2022-10-29T20:27:55.563Z,98782.23
2022-10-29T20:31:12.522Z,98782.37
2022-10-29T20:34:15.699Z,98785.38
2022-10-29T20:37:20.482Z,98780.95
2022-10-29T20:40:23.898Z,98778.73
2022-10-29T20:43:28.519Z,98776.13
2022-10-29T20:46:31.907Z,98786.48
2022-10-29T20:49:34.781Z,98786.64
2022-10-29T20:52:37.561Z,98778.59
2022-10-29T20:55:40.931Z,98775.75
2022-10-29T20:58:46.492Z,98773.63
2022-10-29T21:01:52.973Z,98771.41
2022-10-29T21:05:00.039Z,98775.36
2022-10-29T21:08:04.715Z,98764.79
2022-10-29T21:14:29.898Z,98760.46
2022-10-29T21:17:36.304Z,98756.52
2022-10-29T21:20:41.880Z,98758.42
2022-10-29T21:23:45.298Z,98754.63
2022-10-29T21:26:49.717Z,98746.88
2022-10-29T21:29:59.302Z,98746.49
2022-10-29T21:33:02.340Z,98741.19
2022-10-29T21:36:05.745Z,98734.33
2022-10-29T21:39:09.467Z,98733.61
2022-10-29T21:42:12.485Z,98732.98
2022-10-29T21:45:15.999Z,98726.02
2022-10-29T21:48:19.730Z,98729.89
2022-10-29T21:51:22.610Z,98729.02
2022-10-29T21:54:28.264Z,98735.03
2022-10-29T21:57:31.531Z,98737.48
2022-10-29T22:00:34.459Z,98739.61
2022-10-29T22:03:41.363Z,98736.60
2022-10-29T22:06:44.314Z,98729.57
2022-10-29T22:09:47.157Z,98732.04
2022-10-29T22:12:50.046Z,98736.94
2022-10-29T22:15:52.908Z,98731.64
2022-10-29T22:18:55.718Z,98723.98
2022-10-29T22:21:58.543Z,98715.86
2022-10-29T22:25:01.426Z,98711.21
2022-10-29T22:28:04.594Z,98700.16
2022-10-29T22:31:07.922Z,98702.86
2022-10-29T22:34:10.847Z,98710.52
2022-10-29T22:37:13.694Z,98710.85
2022-10-29T22:40:16.519Z,98707.79
2022-10-29T22:43:19.344Z,98711.18
2022-10-29T22:46:22.498Z,98713.09
2022-10-29T22:49:25.317Z,98706.15
2022-10-29T22:52:28.200Z,98713.40
2022-10-29T22:55:31.107Z,98722.23
2022-10-29T22:58:34.043Z,98730.55
2022-10-29T23:01:42.082Z,98736.84
2022-10-29T23:04:48.075Z,98737.11
2022-10-29T23:07:50.908Z,98721.86
2022-10-29T23:10:53.815Z,98716.58
2022-10-29T23:14:01.462Z,98718.64
2022-10-29T23:17:05.195Z,98713.11
2022-10-29T23:20:08.114Z,98705.92
2022-10-29T23:23:11.235Z,98688.89
2022-10-29T23:26:15.300Z,98672.38
2022-10-29T23:29:18.187Z,98679.04
2022-10-29T23:32:21.009Z,98684.63
2022-10-29T23:35:23.857Z,98674.53
2022-10-29T23:38:26.684Z,98670.20
2022-10-29T23:41:30.922Z,98685.52
2022-10-29T23:44:33.791Z,98692.40
2022-10-29T23:47:36.671Z,98696.82
2022-10-29T23:50:40.500Z,98698.41
2022-10-29T23:53:43.380Z,98705.27
2022-10-29T23:56:46.212Z,98707.89
2022-10-29T23:59:49.110Z,98707.57
